Tiempo atmosférico en la estación meteorológica de Hermigua, Santa Cruz de Tenerife (252 m.)



Fecha
DESCASC
Temp. máxima en grados centígrados (hora)
DESCASC
Temp. mínima en grados centígrados (hora)
DESCASC
Temp. media en grados centígrados
DESCASC
Racha de viento máxima en m/sg (hora)
DESCASC
Velocidad máxima media en intervalos de 10 minutos(hora)
DESCASC
Precipitaciones diarias en mm
DESCASC
Precipitaciones de 00:00 a 06:00 en mm
DESCASC
Precipitaciones de 06:00 a 12:00 en mm
DESCASC
Precipitaciones de 12:00 a 18:00 en mm
DESCASC
Precipitaciones de 18:00 a 24:00 en mm
DESCASC
25-04-2019 20.3 (16:10) 13.1 (01:50) 16.7 5.83 (12:40) 3.06 (12:40) 0 0 0 0 0
24-04-2019 19.9 (16:30) 13.5 (07:10) 16.7 8.61 (17:30) 3.61 (15:30) 0 0 0 0 0
23-04-2019 19.3 (10:40) 15.3 (15:40) 17.3 10.28 (19:20) 5 (14:20) 7 0 0 7 0
22-04-2019 21.7 (16:30) 13.8 (00:00) 17.8 7.5 (19:10) 3.61 (18:00) 0 0 0 0 0
21-04-2019 20.2 (15:10) 15.5 (00:00) 17.9 8.89 (01:00) 3.89 (11:30) 0 0 0 0 0
20-04-2019 19.2 (14:00) 15 (00:00) 17.1 8.89 (00:10) 4.17 (23:20) 0 0 0 0 0
19-04-2019 19.3 (15:20) 15.2 (00:00) 17.2 10 (23:20) 4.72 (01:20) 0 0 0 0 0
18-04-2019 19.6 (15:10) 15.5 (00:00) 17.6 9.17 (12:20) 4.72 (12:20) 0 0 0 0 0
17-04-2019 19.1 (09:40) 12.2 (00:00) 15.7 9.44 (09:30) 4.72 (09:10) 0 0 0 0 0
16-04-2019 21.4 (16:20) 14.6 (00:00) 18 7.78 (21:20) 3.33 (21:10) 0 0 0 0 0
15-04-2019 21 (12:10) 14.6 (00:00) 17.8 6.39 (13:10) 3.33 (12:50) 0 0 0 0 0
14-04-2019 20.6 (17:30) 11.6 (00:00) 16.1 6.39 (14:30) 3.33 (12:50) 0 0 0 0 0
13-04-2019 19.4 (14:50) 15.5 (00:00) 17.4 7.78 (06:40) 3.61 (06:40) 0 0 0 0 0
12-04-2019 19.3 (15:00) 15.1 (00:00) 17.2 10.56 (00:20) 3.89 (13:00) 0 0 0 0 0
11-04-2019 19.3 (15:20) 15 (00:00) 17.1 8.61 (20:40) 3.61 (11:50) 0 0 0 0 0
10-04-2019 18.9 (16:40) 14.9 (00:00) 16.9 8.33 (16:20) 3.89 (12:00) 0 0 0 0 0
09-04-2019 19.6 (13:00) 13.1 (00:00) 16.4 7.5 (20:00) 3.61 (15:20) 0 0 0 0 0
08-04-2019 18.7 (16:40) 13.6 (00:00) 16.2 6.11 (10:50) 3.06 (11:10) 0.6 0.6 0 0 0
07-04-2019 18.4 (14:20) 12.7 (00:00) 15.5 6.11 (14:20) 2.78 (14:50) 0 0 0 0 0
06-04-2019 18.2 (15:20) 14.1 (00:00) 16.2 10.83 (08:00) 5 (03:10) 0.2 0.2 0 0 0
05-04-2019 17.6 (13:20) 13.7 (00:00) 15.7 12.78 (18:50) 6.39 (20:10) 0.4 0 0.2 0 0.2
04-04-2019 17.6 (13:30) 11.9 (00:00) 14.8 10.28 (08:30) 4.44 (14:20) 4.8 4.4 0.4 0 0
03-04-2019 20.7 (16:20) 11.3 (06:10) 16 9.72 (16:30) 4.44 (16:30) 26.4 0 0.8 0 25.6
02-04-2019 14.7 (12:40) 11.4 (00:00) 13 8.61 (16:00) 4.72 (16:00) 39.2 0 9 26 4.2
01-04-2019 17.6 (10:50) 11.7 (00:00) 14.7 10.28 (22:10) 4.72 (22:10) 24.2 0 0 3 21.2
31-03-2019 18.9 (12:30) 11.6 (00:00) 15.3 8.33 (13:00) 3.89 (12:10) 1.6 0 0 0.6 1
30-03-2019 19.3 (18:00) 10.8 (00:00) 15 8.06 (08:10) 3.89 (08:20) 4.8 2.6 2.2 0 0
29-03-2019 18.9 (17:40) 11.9 (00:00) 15.4 8.61 (18:20) 2.78 (19:10) 3.4 1.2 0 0 2.2
28-03-2019 17.2 (10:50) 12.4 (00:00) 14.8 4.72 (11:20) 2.5 (04:30) 12.2 0 0 12 0.2
27-03-2019 19 (13:20) 13.8 (00:00) 16.4 8.33 (08:20) 3.33 (00:40) 1.4 0 0 1.2 0.2

Gráficas

Temp. máximas Temp. mínimas Temp. medias Precipitaciones Rachas de viento máximas Velocidades máximas media en intervalos de 10 minutos

Datos horarios

Fecha y hora oficial Temperatura (ºC) Velocidad del viento (km/h) Dirección del viento Racha (km/h) Dirección de racha Precipitación (mm) Presión (hPa) Tendencia (hPa) Humedad (%)
2019-04-25 23:00:00 17.1 4 Norte 15 Nordeste 0 -- -- 80
2019-04-25 22:00:00 17.2 6 Norte 17 Este 0 -- -- 77
2019-04-25 21:00:00 17.3 5 Norte 16 Norte 0 -- -- 75
2019-04-25 20:00:00 17.5 9 Nordeste 18 Norte 0 -- -- 71
2019-04-25 19:00:00 19 7 Nordeste 19 Nordeste 0 -- -- 65
2019-04-25 18:00:00 20.1 6 Norte 17 Nordeste 0 -- -- 60
2019-04-25 17:00:00 19.5 8 Norte 20 Nordeste 0 -- -- 62
2019-04-25 16:00:00 20.2 10 Nordeste 19 Norte 0 -- -- 60
2019-04-25 15:00:00 19.5 9 Nordeste 21 Norte 0 -- -- 62
2019-04-25 14:00:00 19.2 10 Nordeste 21 Norte 0 -- -- 62
2019-04-25 13:00:00 19.1 10 Nordeste 21 Nordeste 0 -- -- 62
2019-04-25 12:00:00 18.8 10 Nordeste 19 Nordeste 0 -- -- 62
2019-04-25 11:00:00 18.4 8 Nordeste 20 Nordeste 0 -- -- 63
2019-04-25 10:00:00 16.8 2 Sur 9 Sudeste 0 -- -- 67
2019-04-25 09:00:00 15.6 7 Sur 14 Sur 0 -- -- 69
2019-04-25 08:00:00 14.2 7 Sur 12 Sur 0 -- -- 76
2019-04-25 07:00:00 14.6 3 Sur 9 Sudeste 0 -- -- 77
2019-04-25 06:00:00 14.6 4 Sudeste 11 Sur 0 -- -- 76
2019-04-25 05:00:00 14.6 3 Sudeste 9 Sur 0 -- -- 76
2019-04-25 04:00:00 14.5 4 Sur 10 Sur 0 -- -- 76
2019-04-25 03:00:00 14 7 Sur 13 Sur 0 -- -- 74
2019-04-25 02:00:00 13.2 7 Sur 14 Sur 0 -- -- 72
2019-04-25 01:00:00 13.4 8 Sur 14 Sur 0 -- -- 68
2019-04-25 00:00:00 13.6 9 Sur 15 Sur 0 -- -- 70
2019-04-24 23:00:00 13.8 8 Sur 14 Sur 0 -- -- 68
2019-04-24 22:00:00 14.8 6 Sur 10 Sur 0 -- -- 69
2019-04-24 21:00:00 16.2 2 Sur 16 Este 0 -- -- 74
2019-04-24 20:00:00 16.6 5 Nordeste 21 Nordeste 0 -- -- 73
2019-04-24 19:00:00 18.2 9 Nordeste 24 Nordeste 0 -- -- 67
2019-04-24 18:00:00 18.9 10 Nordeste 31 Nordeste 0 -- -- 67
2019-04-24 17:00:00 19.3 8 Nordeste 22 Nordeste 0 -- -- 66
2019-04-24 16:00:00 19.2 11 Nordeste 24 Nordeste 0 -- -- 64
2019-04-24 15:00:00 19.2 10 Nordeste 23 Nordeste 0 -- -- 64
2019-04-24 14:00:00 18.9 10 Nordeste 23 Nordeste 0 -- -- 69
2019-04-24 13:00:00 18.6 10 Nordeste 22 Nordeste 0 -- -- 68
2019-04-24 12:00:00 18.1 10 Nordeste 20 Nordeste 0 -- -- 68
2019-04-24 11:00:00 17.9 8 Nordeste 14 Este 0 -- -- 66
2019-04-24 10:00:00 17.2 6 Nordeste 10 Norte 0 -- -- 69
2019-04-24 09:00:00 15.3 3 Nordeste 8 Nordeste 0 -- -- 80
2019-04-24 08:00:00 14.1 2 Norte 9 Sur 0 -- -- 84
2019-04-24 07:00:00 13.6 4 Sur 11 Noroeste 0 -- -- 86
2019-04-24 06:00:00 14.9 5 Nordeste 24 Nordeste 0 -- -- 79
2019-04-24 05:00:00 15 8 Nordeste 22 Nordeste 0 -- -- 78
2019-04-24 04:00:00 15.1 9 Nordeste 23 Nordeste 0 -- -- 80
2019-04-24 03:00:00 15.2 10 Nordeste 24 Nordeste 0 -- -- 79
2019-04-24 02:00:00 15.1 3 Norte 18 Nordeste 0 -- -- 77
2019-04-24 01:00:00 15 8 Nordeste 19 Nordeste 0 -- -- 75
2019-04-24 00:00:00 15.4 7 Norte 24 Nordeste 0 -- -- 78
2019-04-23 23:00:00 15.6 11 Nordeste 28 Norte 0 -- -- 75
2019-04-23 22:00:00 15.7 15 Nordeste 35 Nordeste 0 -- -- 77
2019-04-23 21:00:00 15.8 15 Nordeste 34 Nordeste 0 -- -- 78
2019-04-23 20:00:00 15.9 12 Nordeste 37 Nordeste 0 -- -- 74
2019-04-23 19:00:00 16.2 14 Nordeste 36 Nordeste 0 -- -- 70
2019-04-23 18:00:00 16.8 12 Este 33 Nordeste 0 -- -- 70
2019-04-23 17:00:00 16 12 Nordeste 33 Norte 0 -- -- 81
2019-04-23 16:00:00 15.5 9 Este 34 Nordeste 2 -- -- 88
2019-04-23 15:00:00 15.5 10 Este 35 Nordeste 3.4 -- -- 91
2019-04-23 14:00:00 16 13 Nordeste 33 Norte 0.8 -- -- 94
2019-04-23 13:00:00 16.6 14 Nordeste 36 Nordeste 0.8 -- -- 94
2019-04-23 12:00:00 17.9 10 Este 31 Nordeste 0 -- -- 78
2019-04-23 11:00:00 19.3 11 Nordeste 29 Norte 0 -- -- 63
2019-04-23 10:00:00 18.1 10 Este 22 Sudeste 0 -- -- 70
2019-04-23 09:00:00 16.9 8 Este 24 Este 0 -- -- 70
2019-04-23 08:00:00 16.5 11 Este 30 Norte 0 -- -- 71
2019-04-23 07:00:00 16.5 12 Nordeste 32 Nordeste 0 -- -- 70
2019-04-23 06:00:00 16.5 8 Sudeste 27 Nordeste 0 -- -- 74
2019-04-23 05:00:00 16.5 4 Sudeste 19 Este 0 -- -- 73
2019-04-23 04:00:00 16.7 10 Este 27 Este 0 -- -- 71
2019-04-23 03:00:00 16.6 8 Nordeste 32 Este 0 -- -- 77
2019-04-23 02:00:00 16.6 6 Este 28 Nordeste 0 -- -- 76
2019-04-23 01:00:00 16.7 4 Este 23 Norte 0 -- -- 75
2019-04-23 00:00:00 16.8 3 Sur 25 Nordeste 0 -- -- 76
2019-04-22 23:00:00 16.8 7 Este 21 Nordeste 0 -- -- 76
2019-04-22 22:00:00 16.7 2 Este 20 Nordeste 0 -- -- 75
2019-04-22 21:00:00 17.2 6 Sudoeste 24 Este 0 -- -- 73
2019-04-22 20:00:00 17.2 12 Este 27 Nordeste 0 -- -- 72
2019-04-22 19:00:00 18.1 7 Nordeste 25 Nordeste 0 -- -- 70
2019-04-22 18:00:00 19.6 13 Nordeste 27 Nordeste 0 -- -- 65
2019-04-22 17:00:00 20.5 12 Nordeste 24 Nordeste 0 -- -- 63
2019-04-22 16:00:00 20.6 9 Nordeste 22 Norte 0 -- -- 64
2019-04-22 15:00:00 20.4 9 Norte 24 Nordeste 0 -- -- 64
2019-04-22 14:00:00 20.9 7 Norte 25 Nordeste 0 -- -- 64
2019-04-22 13:00:00 20.8 6 Nordeste 19 Norte 0 -- -- 63
2019-04-22 12:00:00 19.5 8 Este 22 Nordeste 0 -- -- 65
2019-04-22 11:00:00 19 6 Nordeste 15 Norte 0 -- -- 67
2019-04-22 10:00:00 16.8 6 Este 18 Nordeste 0 -- -- 74
2019-04-22 09:00:00 15.1 6 Sur 12 Sudoeste 0 -- -- 79
2019-04-22 08:00:00 13.8 7 Sur 12 Sur 0 -- -- 82
2019-04-22 07:00:00 14.7 5 Sur 15 Sur 0 -- -- 76
2019-04-22 06:00:00 14.8 8 Sur 16 Sur 0 -- -- 75
2019-04-22 05:00:00 14.7 7 Sur 12 Sur 0 -- -- 75
2019-04-22 04:00:00 15.4 4 Sur 11 Sur 0 -- -- 76
2019-04-22 03:00:00 15.8 4 Sudeste 12 Sur 0 -- -- 77
2019-04-22 02:00:00 15.6 5 Sur 8 Sur 0 -- -- 80
2019-04-22 01:00:00 16.4 0 Calma 6 Este 0 -- -- 82
2019-04-22 00:00:00 16.6 4 Este 20 Nordeste 0 -- -- 78
2019-04-21 23:00:00 16.7 7 Nordeste 21 Nordeste 0 -- -- 85
2019-04-21 22:00:00 16.7 11 Nordeste 23 Nordeste 0 -- -- 84
2019-04-21 21:00:00 16.9 10 Nordeste 21 Nordeste 0 -- -- 84
2019-04-21 20:00:00 17.1 11 Nordeste 23 Nordeste 0 -- -- 82
2019-04-21 19:00:00 17.6 7 Nordeste 22 Nordeste 0 -- -- 80
2019-04-21 18:00:00 17.9 10 Nordeste 25 Nordeste 0 -- -- 80
2019-04-21 17:00:00 19.1 9 Norte 23 Norte 0 -- -- 73
2019-04-21 16:00:00 20.2 12 Norte 22 Este 0 -- -- 65
2019-04-21 15:00:00 20.1 10 Norte 24 Nordeste 0 -- -- 63
2019-04-21 14:00:00 19.7 10 Norte 26 Nordeste 0 -- -- 68
2019-04-21 13:00:00 18.9 9 Norte 28 Norte 0 -- -- 69
2019-04-21 12:00:00 17.9 9 Nordeste 25 Norte 0 -- -- 74
2019-04-21 11:00:00 17 11 Norte 25 Norte 0 -- -- 76
2019-04-21 10:00:00 16.5 9 Nordeste 25 Norte 0 -- -- 77
2019-04-21 09:00:00 16.2 12 Nordeste 26 Norte 0 -- -- 79
2019-04-21 08:00:00 15.7 9 Nordeste 26 Norte 0 -- -- 83
2019-04-21 07:00:00 15.9 8 Nordeste 22 Nordeste 0 -- -- 82
2019-04-21 06:00:00 15.9 8 Nordeste 23 Nordeste 0 -- -- 83
2019-04-21 05:00:00 15.9 8 Nordeste 25 Nordeste 0 -- -- 80
2019-04-21 04:00:00 16.1 7 Nordeste 23 Norte 0 -- -- 83
2019-04-21 03:00:00 16 6 Norte 28 Norte 0 -- -- 79
2019-04-21 02:00:00 16 11 Nordeste 31 Nordeste 0 -- -- 83
2019-04-21 01:00:00 15.5 13 Nordeste 32 Norte 0 -- -- 85
2019-04-21 00:00:00 16.1 8 Nordeste 27 Noroeste 0 -- -- 77
2019-04-20 23:00:00 16.1 13 Nordeste 28 Nordeste 0 -- -- 81
2019-04-20 22:00:00 16 6 Norte 30 Norte 0 -- -- 76
2019-04-20 21:00:00 16.2 7 Norte 18 Norte 0 -- -- 79
2019-04-20 20:00:00 16.4 7 Norte 21 Norte 0 -- -- 75
2019-04-20 19:00:00 17 8 Norte 23 Nordeste 0 -- -- 69
2019-04-20 18:00:00 16.9 11 Nordeste 23 Nordeste 0 -- -- 77
2019-04-20 17:00:00 19.1 9 Norte 27 Este 0 -- -- 59
2019-04-20 16:00:00 18.7 10 Nordeste 26 Norte 0 -- -- 67
2019-04-20 15:00:00 18.8 12 Norte 29 Nordeste 0 -- -- 67
2019-04-20 14:00:00 19.2 11 Norte 27 Norte 0 -- -- 59
2019-04-20 13:00:00 18.6 10 Norte 28 Norte 0 -- -- 63
2019-04-20 12:00:00 16.8 10 Nordeste 26 Nordeste 0 -- -- 67
2019-04-20 11:00:00 16.4 7 Norte 21 Nordeste 0 -- -- 70
2019-04-20 10:00:00 16.1 9 Nordeste 30 Nordeste 0 -- -- 63
2019-04-20 09:00:00 15.6 9 Nordeste 24 Nordeste 0 -- -- 74
2019-04-20 08:00:00 15.2 7 Norte 23 Nordeste 0 -- -- 73
2019-04-20 07:00:00 15.1 10 Norte 29 Norte 0 -- -- 73
2019-04-20 06:00:00 15.3 10 Nordeste 25 Norte 0 -- -- 72
2019-04-20 05:00:00 15.4 8 Norte 28 Nordeste 0 -- -- 66
2019-04-20 04:00:00 15.6 12 Nordeste 31 Norte 0 -- -- 65
2019-04-20 03:00:00 15.6 14 Norte 29 Nordeste 0 -- -- 73
2019-04-20 02:00:00 15.6 13 Nordeste 28 Nordeste 0 -- -- 76
2019-04-20 01:00:00 15.6 9 Nordeste 32 Noroeste 0 -- -- 76
2019-04-20 00:00:00 15.6 13 Nordeste 36 Nordeste 0 -- -- 72
2019-04-19 23:00:00 15.5 12 Norte 30 Nordeste 0 -- -- 73
2019-04-19 22:00:00 15.6 12 Nordeste 27 Nordeste 0 -- -- 73
2019-04-19 21:00:00 15.7 7 Nordeste 32 Norte 0 -- -- 71
2019-04-19 20:00:00 15.9 13 Nordeste 30 Norte 0 -- -- 68
2019-04-19 19:00:00 16.3 12 Nordeste 27 Nordeste 0 -- -- 69
2019-04-19 18:00:00 16.9 9 Nordeste 24 Nordeste 0 -- -- 68
2019-04-19 17:00:00 17.7 10 Nordeste 23 Nordeste 0 -- -- 63
2019-04-19 16:00:00 18.4 10 Norte 25 Nordeste 0 -- -- 62
2019-04-19 15:00:00 19 11 Norte 25 Nordeste 0 -- -- 62
2019-04-19 14:00:00 18.9 11 Norte 30 Nordeste 0 -- -- 60
2019-04-19 13:00:00 18.4 13 Norte 27 Nordeste 0 -- -- 60
2019-04-19 12:00:00 18 11 Nordeste 32 Nordeste 0 -- -- 62
2019-04-19 11:00:00 17.3 14 Nordeste 33 Norte 0 -- -- 62
2019-04-19 10:00:00 16 12 Nordeste 32 Nordeste 0 -- -- 73
2019-04-19 09:00:00 16.1 9 Nordeste 31 Nordeste 0 -- -- 71
2019-04-19 08:00:00 15.4 11 Nordeste 33 Nordeste 0 -- -- 73
2019-04-19 07:00:00 15.3 7 Norte 29 Norte 0 -- -- 76
2019-04-19 06:00:00 15.2 8 Norte 27 Nordeste 0 -- -- 70
2019-04-19 05:00:00 15.4 12 Nordeste 30 Nordeste 0 -- -- 74
2019-04-19 04:00:00 15.6 13 Nordeste 32 Norte 0 -- -- 76
2019-04-19 03:00:00 15.7 11 Nordeste 32 Nordeste 0 -- -- 76
2019-04-19 02:00:00 15.7 10 Nordeste 31 Norte 0 -- -- 78
2019-04-19 01:00:00 15.9 9 Norte 29 Nordeste 0 -- -- 80
2019-04-19 00:00:00 15.9 9 Nordeste 30 Nordeste 0 -- -- 77
2019-04-18 23:00:00 15.9 8 Nordeste 24 Nordeste 0 -- -- 76
2019-04-18 22:00:00 16.1 8 Nordeste 28 Norte 0 -- -- 73
2019-04-18 21:00:00 16.2 10 Nordeste 28 Nordeste 0 -- -- 75
2019-04-18 20:00:00 16.5 8 Nordeste 27 Nordeste 0 -- -- 73
2019-04-18 19:00:00 16.7 9 Nordeste 26 Norte 0 -- -- 67
2019-04-18 18:00:00 17.3 8 Nordeste 24 Norte 0 -- -- 66
2019-04-18 17:00:00 18.3 9 Nordeste 27 Norte 0 -- -- 65
2019-04-18 16:00:00 19.5 12 Norte 25 Nordeste 0 -- -- 60
2019-04-18 15:00:00 19.2 13 Nordeste 28 Nordeste 0 -- -- 63
2019-04-18 14:00:00 18.6 11 Norte 27 Nordeste 0 -- -- 64
2019-04-18 13:00:00 18 15 Norte 33 Norte 0 -- -- 62
2019-04-18 12:00:00 18 11 Norte 30 Nordeste 0 -- -- 66
2019-04-18 11:00:00 16.8 10 Nordeste 29 Norte 0 -- -- 73
2019-04-18 10:00:00 16.4 9 Nordeste 30 Nordeste 0 -- -- 74
2019-04-18 09:00:00 16.1 13 Nordeste 29 Nordeste 0 -- -- 72
2019-04-18 08:00:00 15.6 12 Nordeste 27 Nordeste 0 -- -- 78
2019-04-18 07:00:00 15.6 11 Nordeste 27 Nordeste 0 -- -- 80
2019-04-18 06:00:00 15.7 8 Nordeste 22 Nordeste 0 -- -- 79
2019-04-18 05:00:00 15.6 6 Norte 27 Nordeste 0 -- -- 76
2019-04-18 04:00:00 15.9 8 Norte 26 Nordeste 0 -- -- 79
2019-04-18 03:00:00 16 7 Norte 27 Nordeste 0 -- -- 77
2019-04-18 02:00:00 16.1 9 Norte 30 Nordeste 0 -- -- 74
2019-04-18 01:00:00 16.3 9 Nordeste 28 Nordeste 0 -- -- 78
2019-04-18 00:00:00 16.4 10 Nordeste 27 Nordeste 0 -- -- 74
2019-04-17 23:00:00 16.5 13 Nordeste 27 Norte 0 -- -- 76
2019-04-17 22:00:00 16.5 10 Nordeste 25 Nordeste 0 -- -- 75
2019-04-17 21:00:00 16.6 10 Nordeste 26 Nordeste 0 -- -- 76
2019-04-17 20:00:00 16.9 11 Nordeste 30 Nordeste 0 -- -- 75
2019-04-17 19:00:00 17.3 12 Nordeste 25 Nordeste 0 -- -- 74
2019-04-17 18:00:00 18.4 10 Nordeste 19 Norte 0 -- -- 67
2019-04-17 17:00:00 17.7 10 Nordeste 26 Norte 0 -- -- 68
2019-04-17 16:00:00 17.1 13 Nordeste 33 Nordeste 0 -- -- 76
2019-04-17 15:00:00 17.9 8 Nordeste 20 Nordeste 0 -- -- 79
2019-04-17 14:00:00 17.9 7 Nordeste 27 Nordeste 0 -- -- 76
2019-04-17 13:00:00 18.3 7 Nordeste 22 Norte 0 -- -- 75
2019-04-17 12:00:00 17.3 7 Este 27 Nordeste 0 -- -- 80
2019-04-17 11:00:00 18.2 7 Norte 26 Nordeste 0 -- -- 78
2019-04-17 10:00:00 19 9 Sudoeste 34 Sudoeste 0 -- -- 70
2019-04-17 09:00:00 18 10 Sudoeste 28 Oeste 0 -- -- 71
2019-04-17 08:00:00 13.9 6 Sudeste 17 Noroeste 0 -- -- 76
2019-04-17 07:00:00 13 5 Sudeste 11 Sur 0 -- -- 79
2019-04-17 06:00:00 13.1 3 Sur 10 Sudoeste 0 -- -- 78
2019-04-17 05:00:00 13.5 6 Sur 12 Sur 0 -- -- 75
2019-04-17 04:00:00 13.3 5 Sudoeste 13 Sur 0 -- -- 72
2019-04-17 03:00:00 12.7 5 Sur 12 Sur 0 -- -- 80
2019-04-17 02:00:00 13.3 5 Sur 13 Sur 0 -- -- 77
2019-04-17 01:00:00 14.2 8 Sur 13 Sur 0 -- -- 73
2019-04-17 00:00:00 15 5 Sur 10 Sur 0 -- -- 73
2019-04-16 23:00:00 17.1 4 Sudeste 19 Este 0 -- -- 70
2019-04-16 22:00:00 17.9 9 Sudeste 28 Sudoeste 0 -- -- 64
2019-04-16 21:00:00 18.2 6 Oeste 20 Oeste 0 -- -- 64
2019-04-16 20:00:00 18.7 4 Norte 14 Norte 0 -- -- 73
2019-04-16 19:00:00 20.5 5 Norte 15 Noroeste 0 -- -- 67
2019-04-16 18:00:00 21.2 8 Nordeste 21 Norte 0 -- -- 65
2019-04-16 17:00:00 20.8 8 Nordeste 21 Nordeste 0 -- -- 63
2019-04-16 16:00:00 20.5 6 Nordeste 16 Nordeste 0 -- -- 58
2019-04-16 15:00:00 20 5 Norte 17 Nordeste 0 -- -- 69
2019-04-16 14:00:00 20.2 10 Nordeste 21 Norte 0 -- -- 67
2019-04-16 13:00:00 20.4 8 Nordeste 19 Norte 0 -- -- 66
2019-04-16 12:00:00 20.2 8 Norte 16 Norte 0 -- -- 62
2019-04-16 11:00:00 19.7 7 Norte 13 Norte 0 -- -- 68
2019-04-16 10:00:00 19.3 4 Norte 8 Noroeste 0 -- -- 66
2019-04-16 09:00:00 16.1 3 Sudoeste 12 Sur 0 -- -- 78
2019-04-16 08:00:00 14.9 8 Sur 12 Sur 0 -- -- 81
2019-04-16 07:00:00 15.2 8 Sur 12 Sur 0 -- -- 78
2019-04-16 06:00:00 15.8 5 Sur 10 Sudeste 0 -- -- 78
2019-04-16 05:00:00 16 3 Sur 10 Sur 0 -- -- 76
2019-04-16 04:00:00 16.1 3 Sur 12 Sur 0 -- -- 74
2019-04-16 03:00:00 16.3 7 Sur 12 Sur 0 -- -- 71
2019-04-16 02:00:00 16.6 8 Sur 14 Sur 0 -- -- 71
2019-04-16 01:00:00 16.6 7 Sur 11 Sur 0 -- -- 71
2019-04-16 00:00:00 17.2 3 Sur 13 Sur 0 -- -- 72
2019-04-15 23:00:00 17.3 6 Sur 10 Sur 0 -- -- 72
2019-04-15 22:00:00 17.6 0 Calma 4 Sudeste 0 -- -- 82
2019-04-15 21:00:00 17.5 2 Sudeste 10 Sur 0 -- -- 82
2019-04-15 20:00:00 17.5 4 Sudoeste 12 Norte 0 -- -- 86
2019-04-15 19:00:00 17.9 6 Norte 16 Nordeste 0 -- -- 87
2019-04-15 18:00:00 18.3 9 Nordeste 18 Norte 0 -- -- 83
2019-04-15 17:00:00 20.5 8 Nordeste 22 Noroeste 0 -- -- 73
2019-04-15 16:00:00 20 12 Nordeste 22 Nordeste 0 -- -- 66
2019-04-15 15:00:00 20.9 10 Nordeste 19 Nordeste 0 -- -- 61
2019-04-15 14:00:00 20.4 9 Nordeste 23 Norte 0 -- -- 67
2019-04-15 13:00:00 20.5 12 Nordeste 23 Nordeste 0 -- -- 65
2019-04-15 12:00:00 20.8 8 Nordeste 17 Nordeste 0 -- -- 57
2019-04-15 11:00:00 19.9 5 Nordeste 13 Nordeste 0 -- -- 61
2019-04-15 10:00:00 18.1 5 Sur 10 Sur 0 -- -- 68
2019-04-15 09:00:00 15.2 2 Este 10 Sudeste 0 -- -- 85
2019-04-15 08:00:00 14.8 5 Sur 12 Sudeste 0 -- -- 82
2019-04-15 07:00:00 15.9 4 Sudeste 9 Noroeste 0 -- -- 78
2019-04-15 06:00:00 15.1 2 Sudeste 13 Sur 0 -- -- 78
2019-04-15 05:00:00 15.8 4 Sudeste 10 Sur 0 -- -- 78
2019-04-15 04:00:00 16 5 Sudeste 10 Sudeste 0 -- -- 78
2019-04-15 03:00:00 16.6 7 Este 17 Norte 0 -- -- 76
2019-04-15 02:00:00 16.7 3 Este 13 Norte 0 -- -- 83
2019-04-15 01:00:00 17.1 5 Nordeste 13 Sur 0 -- -- 76
2019-04-15 00:00:00 17.1 2 Sudoeste 11 Sudeste 0 -- -- 77
2019-04-14 23:00:00 16.2 6 Sur 13 Sudeste 0 -- -- 75
2019-04-14 22:00:00 16.3 5 Sur 11 Noroeste 0 -- -- 78
2019-04-14 21:00:00 17 2 Este 17 Norte 0 -- -- 78
2019-04-14 20:00:00 17.7 6 Norte 15 Norte 0 -- -- 75
2019-04-14 19:00:00 19.5 7 Nordeste 17 Nordeste 0 -- -- 68
2019-04-14 18:00:00 20.1 8 Nordeste 19 Norte 0 -- -- 67
2019-04-14 17:00:00 20.5 7 Nordeste 19 Nordeste 0 -- -- 67
2019-04-14 16:00:00 20.2 8 Nordeste 21 Este 0 -- -- 69
2019-04-14 15:00:00 20.4 8 Norte 23 Nordeste 0 -- -- 68
2019-04-14 14:00:00 20 9 Nordeste 22 Nordeste 0 -- -- 68
2019-04-14 13:00:00 19.5 7 Nordeste 21 Nordeste 0 -- -- 70
2019-04-14 12:00:00 18.9 9 Nordeste 20 Nordeste 0 -- -- 71
2019-04-14 11:00:00 18.5 9 Nordeste 15 Nordeste 0 -- -- 72
2019-04-14 10:00:00 17.6 3 Oeste 8 Sur 0 -- -- 68
2019-04-14 09:00:00 12.2 3 Sur 9 Sudeste 0 -- -- 90
2019-04-14 08:00:00 11.7 5 Sur 10 Sur 0 -- -- 87
2019-04-14 07:00:00 12.6 6 Sur 12 Sudeste 0 -- -- 84
2019-04-14 06:00:00 14.2 7 Sur 14 Sur 0 -- -- 75
2019-04-14 05:00:00 15.1 6 Sur 12 Sudeste 0 -- -- 73
2019-04-14 04:00:00 15.8 2 Sudeste 10 Nordeste 0 -- -- 81
2019-04-14 03:00:00 15.8 3 Este 13 Nordeste 0 -- -- 82
2019-04-14 02:00:00 16.1 6 Nordeste 21 Nordeste 0 -- -- 81
2019-04-14 01:00:00 16.2 9 Nordeste 17 Nordeste 0 -- -- 84
2019-04-14 00:00:00 16.3 5 Nordeste 18 Nordeste 0 -- -- 83
2019-04-13 23:00:00 16.5 4 Nordeste 9 Norte 0 -- -- 80
2019-04-13 22:00:00 16.5 3 Nordeste 13 Nordeste 0 -- -- 79
2019-04-13 21:00:00 16.6 4 Nordeste 13 Nordeste 0 -- -- 80
2019-04-13 20:00:00 16.7 7 Nordeste 17 Norte 0 -- -- 80
2019-04-13 19:00:00 16.9 10 Nordeste 22 Nordeste 0 -- -- 77
2019-04-13 18:00:00 17.2 6 Nordeste 19 Norte 0 -- -- 76
2019-04-13 17:00:00 17.7 8 Nordeste 19 Norte 0 -- -- 75
2019-04-13 16:00:00 18.1 8 Nordeste 22 Nordeste 0 -- -- 74
2019-04-13 15:00:00 19.2 9 Norte 22 Nordeste 0 -- -- 67
2019-04-13 14:00:00 18.9 5 Nordeste 19 Norte 0 -- -- 66
2019-04-13 13:00:00 17.8 6 Nordeste 25 Nordeste 0 -- -- 69
2019-04-13 12:00:00 17.9 10 Norte 23 Nordeste 0 -- -- 70
2019-04-13 11:00:00 17.2 9 Nordeste 22 Nordeste 0 -- -- 71
2019-04-13 10:00:00 16.4 10 Nordeste 22 Norte 0 -- -- 75
2019-04-13 09:00:00 16 5 Norte 18 Norte 0 -- -- 78
2019-04-13 08:00:00 15.6 9 Norte 23 Nordeste 0 -- -- 79
2019-04-13 07:00:00 15.7 9 Nordeste 28 Nordeste 0 -- -- 78
2019-04-13 06:00:00 15.6 10 Norte 26 Nordeste 0 -- -- 80
2019-04-13 05:00:00 15.7 8 Nordeste 21 Norte 0 -- -- 80
2019-04-13 04:00:00 15.7 10 Nordeste 23 Norte 0 -- -- 79
2019-04-13 03:00:00 15.5 8 Norte 19 Nordeste 0 -- -- 81
2019-04-13 02:00:00 15.6 8 Norte 21 Norte 0 -- -- 76
2019-04-13 01:00:00 15.6 5 Nordeste 23 Nordeste 0 -- -- 77
2019-04-13 00:00:00 15.6 6 Nordeste 22 Nordeste 0 -- -- 74
2019-04-12 23:00:00 15.7 7 Nordeste 18 Norte 0 -- -- 74
2019-04-12 22:00:00 15.7 9 Nordeste 21 Norte 0 -- -- 75
2019-04-12 21:00:00 15.8 7 Nordeste 21 Norte 0 -- -- 74
2019-04-12 20:00:00 16 6 Nordeste 22 Noroeste 0 -- -- 72
2019-04-12 19:00:00 16.3 8 Nordeste 23 Norte 0 -- -- 72
2019-04-12 18:00:00 16.9 10 Nordeste 26 Nordeste 0 -- -- 69
2019-04-12 17:00:00 17.9 8 Norte 26 Nordeste 0 -- -- 65
2019-04-12 16:00:00 17.9 10 Norte 22 Nordeste 0 -- -- 67
2019-04-12 15:00:00 19.3 10 Norte 26 Norte 0 -- -- 62
2019-04-12 14:00:00 19 8 Norte 29 Norte 0 -- -- 63
2019-04-12 13:00:00 18.5 14 Norte 28 Nordeste 0 -- -- 59
2019-04-12 12:00:00 17.5 11 Norte 26 Norte 0 -- -- 70
2019-04-12 11:00:00 17.2 8 Norte 29 Norte 0 -- -- 68
2019-04-12 10:00:00 16.4 11 Norte 30 Este 0 -- -- 67
2019-04-12 09:00:00 15.5 8 Norte 21 Nordeste 0 -- -- 71
2019-04-12 08:00:00 15.3 11 Nordeste 25 Nordeste 0 -- -- 74
2019-04-12 07:00:00 15.2 9 Norte 25 Norte 0 -- -- 72
2019-04-12 06:00:00 15.1 9 Norte 28 Nordeste 0 -- -- 64
2019-04-12 05:00:00 15.3 11 Nordeste 31 Norte 0 -- -- 72
2019-04-12 04:00:00 15.3 8 Norte 28 Nordeste 0 -- -- 74
2019-04-12 03:00:00 15.3 9 Nordeste 23 Norte 0 -- -- 73
2019-04-12 02:00:00 15.2 8 Norte 20 Nordeste 0 -- -- 75
2019-04-12 01:00:00 15.6 7 Norte 38 Nordeste 0 -- -- 72
2019-04-12 00:00:00 15.8 10 Nordeste 27 Nordeste 0 -- -- 75
2019-04-11 23:00:00 15.6 6 Norte 24 Norte 0 -- -- 65
2019-04-11 22:00:00 15.7 10 Nordeste 28 Nordeste 0 -- -- 71
2019-04-11 21:00:00 15.8 9 Norte 31 Norte 0 -- -- 74
2019-04-11 20:00:00 16.1 8 Nordeste 23 Nordeste 0 -- -- 69
2019-04-11 19:00:00 16.4 9 Norte 25 Nordeste 0 -- -- 71
2019-04-11 18:00:00 16.8 8 Norte 23 Nordeste 0 -- -- 68
2019-04-11 17:00:00 17.7 10 Norte 24 Noroeste 0 -- -- 65
2019-04-11 16:00:00 19 10 Norte 23 Norte 0 -- -- 62
2019-04-11 15:00:00 18.8 10 Norte 24 Nordeste 0 -- -- 59
2019-04-11 14:00:00 18.4 11 Norte 25 Nordeste 0 -- -- 58
2019-04-11 13:00:00 17.4 10 Norte 25 Norte 0 -- -- 64
2019-04-11 12:00:00 17.3 12 Norte 29 Nordeste 0 -- -- 59
2019-04-11 11:00:00 16.2 12 Nordeste 25 Nordeste 0 -- -- 70
2019-04-11 10:00:00 15.8 9 Nordeste 26 Norte 0 -- -- 64
2019-04-11 09:00:00 15.6 10 Nordeste 27 Nordeste 0 -- -- 71
2019-04-11 08:00:00 15.5 8 Nordeste 23 Norte 0 -- -- 67
2019-04-11 07:00:00 15.2 7 Norte 18 Noroeste 0 -- -- 69
2019-04-11 06:00:00 15.1 8 Nordeste 23 Norte 0 -- -- 71
2019-04-11 05:00:00 15.3 10 Nordeste 25 Nordeste 0 -- -- 75
2019-04-11 04:00:00 15.1 4 Norte 19 Norte 0 -- -- 76
2019-04-11 03:00:00 15.2 5 Norte 23 Nordeste 0 -- -- 70
2019-04-11 02:00:00 15.5 10 Nordeste 25 Nordeste 0 -- -- 76
2019-04-11 01:00:00 15.5 9 Norte 23 Nordeste 0 -- -- 70
2019-04-11 00:00:00 15.6 10 Norte 24 Nordeste 0 -- -- 72
2019-04-10 23:00:00 15.8 7 Nordeste 24 Nordeste 0 -- -- 70
2019-04-10 22:00:00 15.8 11 Nordeste 26 Nordeste 0 -- -- 73
2019-04-10 21:00:00 15.9 12 Norte 29 Nordeste 0 -- -- 75
2019-04-10 20:00:00 16.3 8 Norte 23 Nordeste 0 -- -- 73
2019-04-10 19:00:00 16.5 9 Nordeste 25 Nordeste 0 -- -- 69
2019-04-10 18:00:00 16.9 9 Nordeste 24 Nordeste 0 -- -- 68
2019-04-10 17:00:00 18.2 9 Nordeste 30 Norte 0 -- -- 59
2019-04-10 16:00:00 18.6 9 Nordeste 23 Norte 0 -- -- 60
2019-04-10 15:00:00 18.2 10 Nordeste 22 Nordeste 0 -- -- 58
2019-04-10 14:00:00 17.3 9 Norte 27 Norte 0 -- -- 64
2019-04-10 13:00:00 16.9 12 Nordeste 27 Nordeste 0 -- -- 70
2019-04-10 12:00:00 16.7 14 Norte 28 Norte 0 -- -- 72
2019-04-10 11:00:00 16.6 10 Norte 22 Este 0 -- -- 74
2019-04-10 10:00:00 16.7 9 Nordeste 21 Nordeste 0 -- -- 69
2019-04-10 09:00:00 15.5 7 Norte 16 Nordeste 0 -- -- 73
2019-04-10 08:00:00 15 5 Norte 20 Nordeste 0 -- -- 76
2019-04-10 07:00:00 15.2 9 Norte 27 Norte 0 -- -- 73
2019-04-10 06:00:00 15.2 8 Norte 23 Nordeste 0 -- -- 73
2019-04-10 05:00:00 15.3 9 Norte 28 Norte 0 -- -- 75
2019-04-10 04:00:00 15.3 6 Norte 22 Norte 0 -- -- 77
2019-04-10 03:00:00 15.3 7 Nordeste 25 Nordeste 0 -- -- 77
2019-04-10 02:00:00 15.1 5 Norte 15 Norte 0 -- -- 78
2019-04-10 01:00:00 15 4 Norte 18 Norte 0 -- -- 77
2019-04-10 00:00:00 15.4 5 Norte 18 Noroeste 0 -- -- 78
2019-04-09 23:00:00 15.7 6 Norte 22 Norte 0 -- -- 81
2019-04-09 22:00:00 16 5 Norte 22 Nordeste 0 -- -- 80
2019-04-09 21:00:00 16.1 8 Norte 24 Nordeste 0 -- -- 81
2019-04-09 20:00:00 16.4 9 Nordeste 27 Nordeste 0 -- -- 84
2019-04-09 19:00:00 16.7 7 Norte 20 Nordeste 0 -- -- 82
2019-04-09 18:00:00 16.6 8 Nordeste 21 Nordeste 0 -- -- 85
2019-04-09 17:00:00 16.7 6 Norte 21 Norte 0 -- -- 84
2019-04-09 16:00:00 17.1 8 Norte 22 Norte 0 -- -- 82
2019-04-09 15:00:00 17.3 9 Norte 23 Nordeste 0 -- -- 84
2019-04-09 14:00:00 19.5 9 Nordeste 20 Este 0 -- -- 66
2019-04-09 13:00:00 19.6 7 Nordeste 22 Nordeste 0 -- -- 65
2019-04-09 12:00:00 18.9 9 Nordeste 18 Nordeste 0 -- -- 68
2019-04-09 11:00:00 17.3 5 Este 13 Nordeste 0 -- -- 73
2019-04-09 10:00:00 16.8 4 Nordeste 7 Este 0 -- -- 75
2019-04-09 09:00:00 15.3 3 Sur 7 Sudeste 0 -- -- 80
2019-04-09 08:00:00 13.8 4 Sudeste 8 Sur 0 -- -- 84
2019-04-09 07:00:00 14.3 2 Este 10 Sur 0 -- -- 80
2019-04-09 06:00:00 14 4 Sur 12 Sudeste 0 -- -- 80
2019-04-09 05:00:00 13.1 6 Sur 9 Sur 0 -- -- 83
2019-04-09 04:00:00 14.2 5 Sur 8 Sur 0 -- -- 80
2019-04-09 03:00:00 14.9 3 Sudeste 7 Noroeste 0 -- -- 79
2019-04-09 02:00:00 15.3 3 Noroeste 7 Noroeste 0 -- -- 75
2019-04-09 01:00:00 15.8 2 Norte 10 Norte 0 -- -- 72
2019-04-09 00:00:00 16 4 Sur 14 Este 0 -- -- 72
2019-04-08 23:00:00 16.1 5 Nordeste 14 Nordeste 0 -- -- 69
2019-04-08 22:00:00 16.2 7 Norte 15 Nordeste 0 -- -- 68
2019-04-08 21:00:00 16.3 5 Nordeste 17 Nordeste 0 -- -- 67
2019-04-08 20:00:00 16.6 6 Nordeste 14 Nordeste 0 -- -- 67
2019-04-08 19:00:00 17.1 6 Nordeste 17 Norte 0 -- -- 65
2019-04-08 18:00:00 17.5 6 Nordeste 19 Nordeste 0 -- -- 65
2019-04-08 17:00:00 18 9 Nordeste 19 Norte 0 -- -- 61
2019-04-08 16:00:00 18.3 9 Norte 21 Nordeste 0 -- -- 63
2019-04-08 15:00:00 18 8 Nordeste 17 Nordeste 0 -- -- 63
2019-04-08 14:00:00 17.8 7 Norte 15 Norte 0 -- -- 64
2019-04-08 13:00:00 17 8 Norte 17 Norte 0 -- -- 70
2019-04-08 12:00:00 16.7 7 Nordeste 21 Nordeste 0 -- -- 75
2019-04-08 11:00:00 16.9 9 Nordeste 22 Nordeste 0 -- -- 70
2019-04-08 10:00:00 16 6 Nordeste 19 Nordeste 0 -- -- 80
2019-04-08 09:00:00 14.8 2 Norte 8 Sur 0 -- -- 88
2019-04-08 08:00:00 14.3 5 Sur 8 Sur 0 -- -- 93
2019-04-08 07:00:00 14.5 4 Sur 7 Sur 0 -- -- 93
2019-04-08 06:00:00 14.6 5 Sur 10 Sudeste 0.6 -- -- 92
2019-04-08 05:00:00 15.1 2 Sur 10 Sudoeste 0 -- -- 87
2019-04-08 04:00:00 14.9 3 Sudeste 6 Sudoeste 0 -- -- 88
2019-04-08 03:00:00 14.5 3 Sur 8 Sur 0 -- -- 87
2019-04-08 02:00:00 14.5 3 Sudeste 11 Sur 0 -- -- 83
2019-04-08 01:00:00 14.2 6 Sur 12 Sur 0 -- -- 76
2019-04-08 00:00:00 13.6 6 Sur 12 Sur 0 -- -- 78
2019-04-07 23:00:00 13.7 5 Sur 13 Sur 0 -- -- 80
2019-04-07 22:00:00 14.4 4 Sur 10 Sur 0 -- -- 79
2019-04-07 21:00:00 15.1 0 Calma 10 Nordeste 0 -- -- 78
2019-04-07 20:00:00 16.3 4 Nordeste 18 Nordeste 0 -- -- 72
2019-04-07 19:00:00 17.8 6 Nordeste 15 Este 0 -- -- 66
2019-04-07 18:00:00 17.5 5 Norte 20 Nordeste 0 -- -- 66
2019-04-07 17:00:00 18.1 8 Nordeste 18 Nordeste 0 -- -- 70
2019-04-07 16:00:00 18.1 7 Nordeste 19 Nordeste 0 -- -- 69
2019-04-07 15:00:00 18 8 Nordeste 22 Norte 0 -- -- 70
2019-04-07 14:00:00 17.7 6 Nordeste 17 Nordeste 0 -- -- 70
2019-04-07 13:00:00 18.3 10 Nordeste 17 Norte 0 -- -- 70
2019-04-07 12:00:00 17.8 6 Nordeste 17 Nordeste 0 -- -- 71
2019-04-07 11:00:00 17.1 5 Norte 17 Nordeste 0 -- -- 74
2019-04-07 10:00:00 16.4 3 Sudoeste 10 Sur 0 -- -- 70
2019-04-07 09:00:00 12.9 4 Sur 13 Sur 0 -- -- 82
2019-04-07 08:00:00 12.8 9 Sur 16 Sur 0 -- -- 79
2019-04-07 07:00:00 13.4 7 Sur 11 Sur 0 -- -- 79
2019-04-07 06:00:00 14 6 Sur 10 Sur 0 -- -- 79
2019-04-07 05:00:00 14 3 Sur 7 Noroeste 0 -- -- 84
2019-04-07 04:00:00 14 2 Sudeste 5 Oeste 0 -- -- 84
2019-04-07 03:00:00 14.7 2 Sudeste 8 Norte 0 -- -- 80
2019-04-07 02:00:00 14.9 4 Norte 8 Norte 0 -- -- 76
2019-04-07 01:00:00 15.1 5 Norte 14 Nordeste 0 -- -- 76
2019-04-07 00:00:00 15.3 5 Nordeste 17 Nordeste 0 -- -- 76
2019-04-06 23:00:00 15.4 8 Norte 18 Norte 0 -- -- 79
2019-04-06 22:00:00 15.3 5 Nordeste 13 Norte 0 -- -- 78
2019-04-06 21:00:00 15.2 6 Nordeste 15 Nordeste 0 -- -- 73
2019-04-06 20:00:00 15.5 7 Nordeste 20 Nordeste 0 -- -- 72
2019-04-06 19:00:00 16 9 Nordeste 21 Nordeste 0 -- -- 69
2019-04-06 18:00:00 16.1 10 Nordeste 20 Nordeste 0 -- -- 69
2019-04-06 17:00:00 17.1 8 Nordeste 23 Nordeste 0 -- -- 68
2019-04-06 16:00:00 17.4 9 Norte 22 Nordeste 0 -- -- 64
2019-04-06 15:00:00 18.1 12 Nordeste 26 Norte 0 -- -- 64
2019-04-06 14:00:00 17.7 9 Nordeste 28 Norte 0 -- -- 65
2019-04-06 13:00:00 17.5 12 Nordeste 26 Norte 0 -- -- 65
2019-04-06 12:00:00 17.1 10 Nordeste 26 Nordeste 0 -- -- 62
2019-04-06 11:00:00 15.8 12 Nordeste 31 Nordeste 0 -- -- 68
2019-04-06 10:00:00 15.8 15 Nordeste 32 Norte 0 -- -- 65
2019-04-06 09:00:00 15.1 14 Nordeste 38 Nordeste 0 -- -- 71
2019-04-06 08:00:00 14.8 14 Nordeste 39 Norte 0 -- -- 69
2019-04-06 07:00:00 14.4 9 Nordeste 27 Nordeste 0 -- -- 73
2019-04-06 06:00:00 14.7 9 Nordeste 33 Nordeste 0 -- -- 68
2019-04-06 05:00:00 14.8 10 Nordeste 35 Norte 0.2 -- -- 71
2019-04-06 04:00:00 14.7 12 Norte 33 Este 0 -- -- 79
2019-04-06 03:00:00 15.1 14 Nordeste 31 Norte 0 -- -- 78
2019-04-06 02:00:00 15.1 11 Nordeste 38 Nordeste 0 -- -- 75
2019-04-06 01:00:00 14.9 12 Nordeste 31 Norte 0 -- -- 82
2019-04-06 00:00:00 15.3 16 Nordeste 38 Norte 0.2 -- -- 72
2019-04-05 23:00:00 15.1 12 Nordeste 40 Nordeste 0 -- -- 77
2019-04-05 22:00:00 15.4 18 Nordeste 40 Nordeste 0 -- -- 67
2019-04-05 21:00:00 15.5 21 Nordeste 43 Nordeste 0 -- -- 75
2019-04-05 20:00:00 15.7 22 Nordeste 44 Nordeste 0 -- -- 70
2019-04-05 19:00:00 15.8 20 Nordeste 46 Nordeste 0 -- -- 73
2019-04-05 18:00:00 15.8 19 Nordeste 38 Nordeste 0 -- -- 78
2019-04-05 17:00:00 15.8 19 Nordeste 43 Nordeste 0 -- -- 77
2019-04-05 16:00:00 16.2 17 Nordeste 39 Nordeste 0 -- -- 78
2019-04-05 15:00:00 17.6 17 Nordeste 35 Nordeste 0 -- -- 71
2019-04-05 14:00:00 17.4 12 Nordeste 41 Nordeste 0 -- -- 72
2019-04-05 13:00:00 17 15 Nordeste 37 Nordeste 0 -- -- 73
2019-04-05 12:00:00 16.7 12 Nordeste 32 Nordeste 0.2 -- -- 74
2019-04-05 11:00:00 15.9 8 Nordeste 29 Nordeste 0 -- -- 74
2019-04-05 10:00:00 15.9 14 Nordeste 30 Nordeste 0 -- -- 71
2019-04-05 09:00:00 14.8 4 Nordeste 24 Nordeste 0 -- -- 79
2019-04-05 08:00:00 14.8 13 Nordeste 27 Nordeste 0 -- -- 74
2019-04-05 07:00:00 14.7 9 Nordeste 21 Nordeste 0 -- -- 76
2019-04-05 06:00:00 14.7 4 Norte 24 Nordeste 0 -- -- 76
2019-04-05 05:00:00 14.6 11 Nordeste 28 Norte 0 -- -- 74
2019-04-05 04:00:00 14.1 3 Este 13 Nordeste 0 -- -- 79
2019-04-05 03:00:00 13.7 3 Sudeste 31 Nordeste 0 -- -- 82
2019-04-05 02:00:00 14.5 14 Norte 36 Nordeste 0 -- -- 79
2019-04-05 01:00:00 15 14 Nordeste 30 Nordeste 0 -- -- 74
2019-04-05 00:00:00 15.1 12 Nordeste 28 Nordeste 0 -- -- 79
2019-04-04 23:00:00 15 12 Nordeste 26 Nordeste 0 -- -- 81
2019-04-04 22:00:00 15.1 13 Nordeste 31 Nordeste 0 -- -- 80
2019-04-04 21:00:00 15 12 Nordeste 26 Nordeste 0 -- -- 79
2019-04-04 20:00:00 15.1 9 Nordeste 33 Nordeste 0 -- -- 82
2019-04-04 19:00:00 15.7 10 Nordeste 24 Nordeste 0 -- -- 80
2019-04-04 18:00:00 16.1 8 Norte 23 Norte 0 -- -- 78
2019-04-04 17:00:00 16.3 10 Nordeste 25 Norte 0 -- -- 75
2019-04-04 16:00:00 16.7 14 Nordeste 28 Nordeste 0 -- -- 76
2019-04-04 15:00:00 16.7 11 Nordeste 28 Este 0 -- -- 78
2019-04-04 14:00:00 17.3 15 Nordeste 27 Nordeste 0 -- -- 71
2019-04-04 13:00:00 16.5 9 Nordeste 26 Norte 0 -- -- 78
2019-04-04 12:00:00 16.2 10 Nordeste 28 Nordeste 0 -- -- 78
2019-04-04 11:00:00 15.2 14 Nordeste 31 Nordeste 0 -- -- 80
2019-04-04 10:00:00 14.8 6 Nordeste 36 Nordeste 0 -- -- 80
2019-04-04 09:00:00 14.6 11 Este 37 Nordeste 0 -- -- 82
2019-04-04 08:00:00 14.1 9 Este 23 Este 0 -- -- 85
2019-04-04 07:00:00 13.7 6 Sudeste 21 Norte 0.4 -- -- 87
2019-04-04 06:00:00 13.9 8 Este 17 Este 0 -- -- 86
2019-04-04 05:00:00 12.9 6 Nordeste 14 Nordeste 0 -- -- 88
2019-04-04 04:00:00 12.1 5 Sur 12 Sur 0.2 -- -- 95
2019-04-04 03:00:00 12.3 5 Sur 11 Sur 1.2 -- -- 96
2019-04-04 02:00:00 12.4 4 Sur 10 Sur 2.8 -- -- 96
2019-04-04 01:00:00 12.7 5 Este 11 Sur 0.2 -- -- 95
2019-04-04 00:00:00 12.8 6 Sur 17 Sudoeste 24.8 -- -- 94
2019-04-03 23:00:00 13.1 6 Sur 13 Sur 0.4 -- -- 89
2019-04-03 22:00:00 14.2 5 Sudeste 16 Nordeste 0 -- -- 86
2019-04-03 21:00:00 15.3 6 Este 34 Norte 0.4 -- -- 81
2019-04-03 20:00:00 15.7 5 Este 28 Nordeste 0 -- -- 79
2019-04-03 19:00:00 16.1 8 Este 29 Nordeste 0 -- -- 77
2019-04-03 18:00:00 17.5 6 Sur 29 Oeste 0 -- -- 70
2019-04-03 17:00:00 19.7 15 Oeste 35 Sudoeste 0 -- -- 56
2019-04-03 16:00:00 20.2 14 Sudoeste 31 Oeste 0 -- -- 56
2019-04-03 15:00:00 17.4 9 Nordeste 25 Nordeste 0 -- -- 66
2019-04-03 14:00:00 18 12 Nordeste 26 Nordeste 0 -- -- 69
2019-04-03 13:00:00 17.4 13 Nordeste 31 Nordeste 0 -- -- 69
2019-04-03 12:00:00 17.2 9 Nordeste 21 Nordeste 0 -- -- 75
2019-04-03 11:00:00 14.8 3 Nordeste 10 Nordeste 0.4 -- -- 86
2019-04-03 10:00:00 14.6 3 Sudeste 17 Este 0.4 -- -- 87
2019-04-03 09:00:00 14.1 4 Nordeste 16 Noroeste 0 -- -- 81
2019-04-03 08:00:00 11.9 5 Sudeste 13 Sudoeste 0 -- -- 94
2019-04-03 07:00:00 11.6 4 Sur 11 Sur 0 -- -- 96
2019-04-03 06:00:00 11.4 3 Sur 12 Sur 0 -- -- 94
2019-04-03 05:00:00 12.3 5 Sur 11 Sur 0 -- -- 94
2019-04-03 04:00:00 12.5 6 Sur 11 Sur 0 -- -- 94
2019-04-03 03:00:00 12.5 6 Sur 11 Sur 0 -- -- 97
2019-04-03 02:00:00 12.7 5 Sur 9 Sudeste 0 -- -- 96
2019-04-03 01:00:00 13.4 5 Sudeste 10 Este 0 -- -- 95
2019-04-03 00:00:00 13.6 4 Oeste 8 Sur 0.6 -- -- 94
2019-04-02 23:00:00 13.2 5 Sur 9 Sur 0 -- -- 95
2019-04-02 22:00:00 13.5 5 Sudeste 28 Nordeste 0 -- -- 93
2019-04-02 21:00:00 14.4 12 Nordeste 29 Nordeste 0.2 -- -- 89
2019-04-02 20:00:00 14.1 12 Nordeste 29 Nordeste 2 -- -- 94
2019-04-02 19:00:00 14.1 12 Nordeste 26 Este 1.4 -- -- 98
2019-04-02 18:00:00 14.1 7 Nordeste 23 Norte 4.2 -- -- 99
2019-04-02 17:00:00 14.3 11 Nordeste 25 Nordeste 3.6 -- -- 98
2019-04-02 16:00:00 14.3 17 Nordeste 31 Nordeste 11.8 -- -- 99
2019-04-02 15:00:00 14.1 6 Nordeste 18 Norte 5.4 -- -- 98
2019-04-02 14:00:00 14.6 4 Nordeste 9 Nordeste 1 -- -- 97
2019-04-02 13:00:00 14.7 4 Nordeste 10 Norte 0 -- -- 96
2019-04-02 12:00:00 14.3 0 Calma 4 Oeste 0 -- -- 96
2019-04-02 11:00:00 13.4 0 Calma 6 Sur 1.2 -- -- 98
2019-04-02 10:00:00 13.1 2 Sur 5 Sur 0 -- -- 98
2019-04-02 09:00:00 12.6 4 Sur 6 Sur 0.6 -- -- 98
2019-04-02 08:00:00 12.5 2 Sur 7 Sudeste 2 -- -- 98
2019-04-02 07:00:00 12.4 2 Sur 10 Sur 5.2 -- -- 97
2019-04-02 06:00:00 12.4 5 Sur 10 Sur 0 -- -- 96
2019-04-02 05:00:00 12.2 0 Calma 7 Sudeste 0 -- -- 97
2019-04-02 04:00:00 12.1 4 Sudeste 6 Sudeste 0 -- -- 97
2019-04-02 03:00:00 11.6 3 Este 9 Sur 0 -- -- 97
2019-04-02 02:00:00 11.5 3 Sur 10 Sur 0 -- -- 95
2019-04-02 01:00:00 11.9 4 Sur 14 Sur 0 -- -- 96
2019-04-02 00:00:00 11.8 5 Sur 9 Sur 0.8 -- -- 97
2019-04-01 23:00:00 11.8 2 Nordeste 37 Nordeste 4 -- -- 98
2019-04-01 22:00:00 12.9 16 Nordeste 33 Nordeste 8.6 -- -- 97
2019-04-01 21:00:00 14.3 4 Norte 10 Este 2.8 -- -- 97
2019-04-01 20:00:00 14.8 2 Este 6 Nordeste 2.4 -- -- 96
2019-04-01 19:00:00 14.8 3 Este 8 Este 2.6 -- -- 96
2019-04-01 18:00:00 15.6 3 Nordeste 6 Este 2.6 -- -- 92
2019-04-01 17:00:00 16.2 2 Este 10 Nordeste 0.2 -- -- 85
2019-04-01 16:00:00 16.7 4 Noroeste 7 Noroeste 0.2 -- -- 83
2019-04-01 15:00:00 16.8 2 Noroeste 14 Nordeste 0 -- -- 82
2019-04-01 14:00:00 17.1 5 Nordeste 13 Nordeste 0 -- -- 78
2019-04-01 13:00:00 17.1 4 Norte 15 Norte 0 -- -- 79
2019-04-01 12:00:00 17.2 5 Norte 16 Nordeste 0 -- -- 78
2019-04-01 11:00:00 17.5 3 Noroeste 10 Noroeste 0 -- -- 71
2019-04-01 10:00:00 15.9 3 Sur 7 Sudoeste 0 -- -- 76
2019-04-01 09:00:00 13.4 4 Sur 9 Sur 0 -- -- 85
2019-04-01 08:00:00 13 5 Sur 15 Sur 0 -- -- 81
2019-04-01 07:00:00 12.4 7 Sur 14 Sur 0 -- -- 84
2019-04-01 06:00:00 12.6 8 Sur 14 Sur 0 -- -- 82
2019-04-01 05:00:00 12.7 6 Sur 11 Sur 0 -- -- 86
2019-04-01 04:00:00 12.8 6 Sur 10 Sur 0 -- -- 87
2019-04-01 03:00:00 12.6 6 Sur 10 Sur 0 -- -- 86
2019-04-01 02:00:00 12.6 5 Sur 9 Sur 0 -- -- 89
2019-04-01 01:00:00 12.8 4 Sur 10 Sur 0 -- -- 89
2019-04-01 00:00:00 13.8 3 Sudoeste 12 Oeste 0 -- -- 85
2019-03-31 23:00:00 15.3 2 Sudeste 13 Nordeste 0 -- -- 84
2019-03-31 22:00:00 15.4 6 Norte 24 Nordeste 0.4 -- -- 80
2019-03-31 21:00:00 15.5 6 Nordeste 21 Nordeste 0.2 -- -- 86
2019-03-31 20:00:00 15.9 9 Nordeste 23 Este 0.4 -- -- 80
2019-03-31 19:00:00 16.5 8 Nordeste 21 Norte 0 -- -- 81
2019-03-31 18:00:00 17.2 9 Norte 23 Norte 0 -- -- 74
2019-03-31 17:00:00 18.5 8 Nordeste 22 Norte 0 -- -- 68
2019-03-31 16:00:00 18.5 9 Nordeste 23 Nordeste 0 -- -- 67
2019-03-31 15:00:00 18.2 8 Nordeste 22 Nordeste 0.2 -- -- 69
2019-03-31 14:00:00 17.3 6 Nordeste 21 Nordeste 0 -- -- 76
2019-03-31 13:00:00 16.8 11 Nordeste 30 Nordeste 0.4 -- -- 80
2019-03-31 12:00:00 18.3 10 Nordeste 21 Nordeste 0 -- -- 69
2019-03-31 11:00:00 17.8 6 Este 22 Norte 0 -- -- 71
2019-03-31 10:00:00 17.2 6 Este 11 Nordeste 0 -- -- 68
2019-03-31 09:00:00 13.9 5 Sur 13 Sur 0 -- -- 83
2019-03-31 08:00:00 14.6 3 Sur 14 Nordeste 0 -- -- 79
2019-03-31 07:00:00 15.2 4 Nordeste 14 Norte 0 -- -- 79
2019-03-31 06:00:00 13.4 2 Sudoeste 10 Sudeste 0 -- -- 87
2019-03-31 05:00:00 11.9 4 Sur 9 Sur 0 -- -- 90
2019-03-31 04:00:00 12.3 3 Sudoeste 10 Sudoeste 0 -- -- 85
2019-03-31 00:00:00 13.3 6 Sur 11 Sur 0 -- -- 81
2019-03-30 23:00:00 12.9 5 Sur 11 Sur 0 -- -- 77
2019-03-30 22:00:00 13.4 4 Sudoeste 15 Sudoeste 0 -- -- 74
2019-03-30 21:00:00 14.7 6 Oeste 18 Sudoeste 0 -- -- 70
2019-03-30 20:00:00 15 4 Sur 13 Oeste 0 -- -- 65
2019-03-30 19:00:00 16.8 6 Nordeste 16 Este 0 -- -- 55
2019-03-30 18:00:00 19.3 4 Noroeste 15 Nordeste 0 -- -- 51
2019-03-30 17:00:00 18 6 Nordeste 23 Nordeste 0 -- -- 63
2019-03-30 16:00:00 18.5 11 Nordeste 26 Nordeste 0 -- -- 51
2019-03-30 15:00:00 18.3 10 Nordeste 22 Nordeste 0 -- -- 61
2019-03-30 14:00:00 18.2 9 Nordeste 25 Nordeste 0 -- -- 51
2019-03-30 13:00:00 17.9 11 Nordeste 24 Nordeste 0 -- -- 55
2019-03-30 12:00:00 17.6 9 Nordeste 27 Norte 0 -- -- 57
2019-03-30 11:00:00 17.3 8 Nordeste 18 Nordeste 0 -- -- 65
2019-03-30 10:00:00 16 7 Nordeste 28 Nordeste 0 -- -- 78
2019-03-30 09:00:00 14.4 14 Nordeste 29 Nordeste 1 -- -- 87
2019-03-30 08:00:00 14.1 8 Norte 22 Nordeste 1.2 -- -- 88
2019-03-30 07:00:00 13.4 4 Norte 20 Sur 0 -- -- 89
2019-03-30 06:00:00 12 9 Sur 14 Sur 0.8 -- -- 93
2019-03-30 05:00:00 11.1 8 Sur 13 Sur 1.8 -- -- 93
2019-03-30 04:00:00 10.9 4 Sur 12 Sur 0 -- -- 85
2019-03-30 03:00:00 11.2 5 Sudoeste 13 Sur 0 -- -- 84
2019-03-30 02:00:00 11.6 6 Sur 14 Sur 0 -- -- 86
2019-03-30 01:00:00 11.9 7 Sur 14 Sur 0 -- -- 85
2019-03-30 00:00:00 11.9 5 Sur 12 Sur 0 -- -- 90
2019-03-29 23:00:00 12.5 8 Sur 12 Sudeste 0 -- -- 88
2019-03-29 22:00:00 12.7 5 Sur 10 Sur 0 -- -- 91
2019-03-29 21:00:00 13.7 5 Sur 10 Sudeste 0.2 -- -- 90
2019-03-29 20:00:00 14.8 5 Este 21 Nordeste 2 -- -- 84
2019-03-29 19:00:00 16.2 8 Nordeste 31 Norte 0 -- -- 77
2019-03-29 18:00:00 18.7 9 Nordeste 18 Norte 0 -- -- 64
2019-03-29 17:00:00 18 4 Nordeste 12 Este 0 -- -- 66
2019-03-29 16:00:00 17.6 6 Nordeste 15 Nordeste 0 -- -- 66
2019-03-29 15:00:00 17.8 5 Nordeste 12 Nordeste 0 -- -- 69
2019-03-29 14:00:00 17.4 3 Norte 9 Norte 0 -- -- 68
2019-03-29 13:00:00 16.8 6 Norte 13 Este 0 -- -- 75
2019-03-29 12:00:00 16.3 3 Norte 8 Norte 0 -- -- 84
2019-03-29 11:00:00 16 5 Nordeste 10 Nordeste 0 -- -- 83
2019-03-29 10:00:00 16.3 3 Nordeste 5 Norte 0 -- -- 79
2019-03-29 09:00:00 15.6 4 Sur 9 Sur 0 -- -- 81
2019-03-29 08:00:00 12.7 6 Sur 12 Sur 0 -- -- 89
2019-03-29 07:00:00 12.9 5 Sur 10 Sur 0 -- -- 93
2019-03-29 06:00:00 12.9 7 Sur 12 Sur 0 -- -- 92
2019-03-29 05:00:00 12.7 5 Sur 11 Sur 0 -- -- 94
2019-03-29 04:00:00 13.2 5 Sur 10 Sur 1.2 -- -- 94
2019-03-29 03:00:00 13.1 5 Sur 9 Sur 0 -- -- 94
2019-03-29 02:00:00 12.8 5 Sur 11 Sur 0 -- -- 94
2019-03-29 01:00:00 12.2 6 Sur 12 Sur 0 -- -- 93
2019-03-29 00:00:00 12.4 6 Sur 12 Sur 0 -- -- 92
2019-03-28 23:00:00 12.9 6 Sur 9 Sur 0 -- -- 93
2019-03-28 22:00:00 13.6 5 Sur 10 Sur 0 -- -- 93
2019-03-28 21:00:00 14.2 6 Sur 9 Sudeste 0 -- -- 93
2019-03-28 20:00:00 14.6 5 Sur 6 Sudeste 0 -- -- 94
2019-03-28 19:00:00 15.1 3 Sudeste 8 Sur 0.2 -- -- 91
2019-03-28 18:00:00 15.8 0 Calma 5 Norte 0 -- -- 87
2019-03-28 17:00:00 15.9 2 Norte 6 Nordeste 0 -- -- 84
2019-03-28 16:00:00 15.2 0 Calma 7 Sur 0.4 -- -- 88
2019-03-28 15:00:00 14.8 5 Sur 8 Sudoeste 5.6 -- -- 94
2019-03-28 14:00:00 15 2 Sudoeste 10 Este 4.4 -- -- 93
2019-03-28 13:00:00 15.6 4 Este 10 Este 1.6 -- -- 91
2019-03-28 12:00:00 16.5 4 Nordeste 17 Nordeste 0 -- -- 85
2019-03-28 11:00:00 17.1 8 Nordeste 15 Nordeste 0 -- -- 80
2019-03-28 10:00:00 16.8 4 Este 8 Este 0 -- -- 79
2019-03-28 09:00:00 15.2 2 Sur 10 Sur 0 -- -- 86
2019-03-28 08:00:00 13.3 6 Sur 11 Sur 0 -- -- 88
2019-03-28 07:00:00 12.9 6 Sur 12 Sur 0 -- -- 86
2019-03-28 06:00:00 13.3 5 Sur 12 Sur 0 -- -- 83
2019-03-28 05:00:00 13.3 7 Sur 15 Sur 0 -- -- 86
2019-03-28 04:00:00 12.5 6 Sur 14 Sur 0 -- -- 88
2019-03-28 03:00:00 13.2 6 Sur 13 Sur 0 -- -- 86
2019-03-28 02:00:00 13.5 7 Sur 14 Sur 0 -- -- 85
2019-03-28 01:00:00 13.5 6 Sur 13 Sur 0 -- -- 87
2019-03-28 00:00:00 14.2 7 Sur 12 Sur 0 -- -- 84
2019-03-27 23:00:00 13.8 6 Sur 11 Sur 0 -- -- 89
2019-03-27 22:00:00 14.4 5 Sur 10 Sur 0 -- -- 88
2019-03-27 21:00:00 14.7 4 Sur 9 Sur 0 -- -- 91
2019-03-27 20:00:00 15.5 3 Sur 9 Este 0 -- -- 89
2019-03-27 19:00:00 16 3 Sur 10 Sur 0.2 -- -- 87
2019-03-27 18:00:00 16.9 3 Sudeste 10 Nordeste 0 -- -- 86
2019-03-27 17:00:00 16.9 6 Nordeste 15 Nordeste 0 -- -- 81
2019-03-27 16:00:00 17.2 6 Nordeste 14 Nordeste 0 -- -- 81
2019-03-27 15:00:00 16.7 3 Este 16 Nordeste 1.2 -- -- 89
2019-03-27 14:00:00 17.4 7 Nordeste 22 Norte 0 -- -- 82
2019-03-27 13:00:00 18.9 11 Nordeste 23 Norte 0 -- -- 78
2019-03-27 12:00:00 17.4 10 Nordeste 21 Nordeste 0 -- -- 82
2019-03-27 11:00:00 16.8 11 Nordeste 22 Nordeste 0 -- -- 86
2019-03-27 10:00:00 17.4 6 Norte 18 Nordeste 0 -- -- 77
2019-03-27 09:00:00 16.2 10 Nordeste 30 Nordeste 0 -- -- 80
2019-03-27 08:00:00 15.8 8 Nordeste 19 Nordeste 0 -- -- 83
2019-03-27 07:00:00 15.6 8 Nordeste 21 Este 0 -- -- 82
2019-03-27 06:00:00 15.6 7 Nordeste 20 Norte 0 -- -- 87
2019-03-27 05:00:00 15.6 8 Norte 21 Nordeste 0 -- -- 86
2019-03-27 04:00:00 15.6 8 Nordeste 23 Norte 0 -- -- 88
2019-03-27 03:00:00 15.7 7 Nordeste 18 Nordeste 0 -- -- 89
2019-03-27 02:00:00 15.7 9 Nordeste 23 Este 0 -- -- 89
2019-03-27 01:00:00 15.8 6 Nordeste 21 Nordeste 0 -- -- 91
2019-03-27 00:00:00 16 10 Norte 32 Nordeste 2.2 -- -- 91